Date,TemperatureHighF,TemperatureAvgF,TemperatureLowF,DewpointHighF,DewpointAvgF,DewpointLowF,HumidityHigh,HumidityAvg,HumidityLow,PressureMaxIn,PressureMinIn,WindSpeedMaxMPH,WindSpeedAvgMPH,GustSpeedMaxMPH,PrecipitationSumIn
2013-3-1,85.0,41.8,27.2,28.7,13.9,6.2,47,35,12,30.26,30.14,0,0,0,0.00
2013-3-2,82.8,52.3,29.3,28.8,22.9,18.3,66,38,11,30.24,30.05,0,0,0,0.00
2013-3-3,65.0,48.5,35.1,29.8,22.9,19.6,63,39,19,30.05,29.86,0,0,0,0.00
2013-3-4,80.6,54.2,38.5,33.1,27.8,21.7,63,39,16,30.02,29.82,0,0,0,0.00
2013-3-5,66.6,47.3,29.2,35.2,26.2,20.3,79,49,22,30.06,29.95,0,0,0,0.00
2013-3-6,67.3,50.9,33.8,33.2,24.8,18.1,64,40,16,29.97,29.85,0,0,0,0.00
2013-3-7,65.0,53.6,34.2,28.5,22.9,19.2,61,33,18,29.87,29.80,0,0,0,0.00
2013-3-8,50.2,40.3,32.2,40.1,32.4,25.5,90,75,40,29.80,29.64,0,0,0,0.21
2013-3-9,43.6,36.4,32.6,36.3,32.0,28.0,88,84,75,29.97,29.76,0,0,0,0.01
2013-3-10,72.7,45.9,29.7,36.2,29.1,23.0,90,58,21,30.09,29.96,0,0,0,0.00
2013-3-11,76.5,41.7,27.0,33.3,24.6,20.1,77,57,15,30.09,29.97,0,0,0,0.00
2013-3-12,88.6,55.0,32.0,33.8,27.5,21.6,67,41,13,30.08,30.00,0,0,0,0.00
2013-3-13,87.3,57.1,34.2,35.1,28.5,23.7,73,41,11,30.17,30.06,0,0,0,0.00
2013-3-14,94.3,60.2,36.2,34.3,27.9,23.8,64,36,8,30.17,30.05,0,0,0,0.00
2013-3-15,81.5,59.6,38.7,36.1,27.1,18.2,66,35,10,30.07,29.92,0,0,0,0.00
2013-3-16,76.3,57.4,43.9,37.4,28.2,20.2,57,37,13,29.92,29.77,0,0,0,0.00
2013-3-17,82.4,56.8,38.0,33.9,19.6,2.0,67,30,3,29.87,29.76,0,0,0,0.00
2013-3-18,80.6,57.7,34.7,23.0,17.2,6.5,40,23,11,29.94,29.86,0,0,0,0.00
2013-3-19,81.7,60.1,46.3,35.0,25.2,17.6,48,30,11,30.03,29.88,0,0,0,0.00
2013-3-20,70.2,50.3,39.6,35.7,28.0,24.3,64,45,21,30.02,29.81,0,0,0,0.00
2013-3-21,86.6,62.4,42.1,38.7,21.4,-0.6,55,24,3,29.81,29.71,0,0,0,0.00
2013-3-22,80.1,52.4,32.0,23.3,10.6,-10.1,42,21,6,29.78,29.68,0,0,0,0.00
2013-3-23,76.9,49.8,33.5,16.2,3.1,-9.8,28,14,2,29.96,29.77,0,0,0,0.00
2013-3-24,78.1,51.4,26.6,17.3,6.3,-2.7,32,18,7,29.97,29.84,0,0,0,0.00
2013-3-25,80.6,53.2,29.2,19.1,11.9,2.4,41,21,9,29.98,29.88,0,0,0,0.00
2013-3-26,71.5,52.6,36.9,23.6,16.2,12.9,41,26,13,29.93,29.83,0,0,0,0.00
2013-3-27,70.6,54.8,37.6,28.3,18.3,14.9,44,26,13,29.94,29.85,0,0,0,0.00
2013-3-28,74.5,56.2,35.3,30.4,22.4,16.3,51,29,15,30.03,29.93,0,0,0,0.00
2013-3-29,90.0,60.6,36.7,33.4,25.1,20.1,55,30,11,30.07,29.98,0,0,0,0.00
2013-3-30,75.4,56.5,43.4,32.0,26.0,19.7,45,33,18,30.05,29.97,0,0,0,0.00
2013-3-31,82.4,63.5,38.7,36.5,28.2,22.1,62,30,15,30.00,29.90,0,0,0,0.00